Time;durP1;ratioP1;P1;durP2;ratioP2;P2;SDS_P1;SDS_P2;PMS_P1;PMS_P2;Temp;Humidity;BMP_temperature;BMP_pressure;BME280_temperature;BME280_humidity;BME280_pressure;Samples;Min_cycle;Max_cycle;Signal;HPM_P1;HPM_P2
2024/01/11 06:58:46;;;;;;;;;12.75;12.25;;;;;19.08;32.13;102984.44;6252647;22;47005;-73
2024/01/11 07:01:12;;;;;;;;;18.00;16.50;;;;;19.06;31.98;102975.81;6336776;22;45311;-76
2024/01/11 07:03:38;;;;;;;;;15.25;15.00;;;;;19.02;32.29;102967.25;6368269;22;45279;-76
2024/01/11 07:06:03;;;;;;;;;17.75;14.75;;;;;18.91;31.96;102951.34;6367867;22;45314;-77
2024/01/11 07:08:30;;;;;;;;;13.25;12.00;;;;;19.07;32.49;102980.13;6367780;22;46214;-75
2024/01/11 07:10:55;;;;;;;;;16.50;15.00;;;;;19.07;32.48;102986.22;6366046;22;45257;-74
2024/01/11 07:13:20;;;;;;;;;14.25;13.00;;;;;18.57;32.57;102913.19;6367999;22;45791;-76
2024/01/11 07:15:47;;;;;;;;;21.75;16.00;;;;;19.05;32.44;102993.41;6367008;22;45508;-75
2024/01/11 07:18:13;;;;;;;;;20.00;16.25;;;;;18.95;32.77;102980.03;6368469;22;45384;-75
2024/01/11 07:20:38;;;;;;;;;16.75;15.00;;;;;18.91;32.48;102983.00;6366669;22;45303;-76
2024/01/11 07:23:04;;;;;;;;;23.00;18.00;;;;;18.97;32.47;102995.75;6368534;22;45501;-80
2024/01/11 07:25:29;;;;;;;;;13.25;11.75;;;;;18.97;32.71;102995.75;6368274;22;45360;-78
2024/01/11 07:27:54;;;;;;;;;18.00;16.25;;;;;19.10;32.62;103016.84;6355257;22;45882;-78
2024/01/11 07:30:19;;;;;;;;;20.50;15.50;;;;;19.11;32.55;103029.09;6335701;22;47013;-79
2024/01/11 07:32:45;;;;;;;;;15.25;13.00;;;;;19.01;32.69;103015.69;6365134;22;45768;-78
2024/01/11 07:35:10;;;;;;;;;17.00;12.50;;;;;19.11;32.57;103029.09;6364020;22;45386;-77
2024/01/11 07:37:39;;;;;;;;;14.75;12.00;;;;;18.90;32.37;102999.75;6363586;22;46593;-79
2024/01/11 07:40:10;;;;;;;;;16.75;13.75;;;;;18.94;32.49;103015.25;6364803;22;45254;-78
2024/01/11 07:42:37;;;;;;;;;19.50;14.50;;;;;19.04;32.32;103028.69;6364162;22;45219;-75
2024/01/11 07:45:03;;;;;;;;;17.00;16.00;;;;;18.97;32.26;103018.66;6363259;22;45463;-75
2024/01/11 07:47:28;;;;;;;;;17.00;15.50;;;;;19.10;32.33;103040.59;6363838;22;46137;-75
2024/01/11 07:49:54;;;;;;;;;17.75;16.75;;;;;19.10;32.55;103043.22;6362731;22;54250;-75
2024/01/11 07:52:21;;;;;;;;;17.50;17.25;;;;;19.09;32.41;103038.91;6364783;22;45294;-75
2024/01/11 07:54:46;;;;;;;;;16.00;13.75;;;;;19.07;32.07;103035.56;6364582;22;45378;-75
2024/01/11 07:57:11;;;;;;;;;19.50;14.25;;;;;18.90;32.38;103013.81;6363651;22;54014;-75
2024/01/11 07:59:37;;;;;;;;;16.75;14.00;;;;;19.10;32.42;103056.41;6365335;22;45373;-75
2024/01/11 08:02:03;;;;;;;;;16.00;15.00;;;;;19.01;32.43;103049.16;6367851;22;45286;-75
2024/01/11 08:04:29;;;;;;;;;18.50;16.25;;;;;19.11;32.15;103065.19;6367781;22;45358;-75
2024/01/11 08:06:54;;;;;;;;;16.25;14.25;;;;;19.10;32.03;103058.25;6368050;22;45965;-75
2024/01/11 08:09:19;;;;;;;;;17.00;16.00;;;;;18.55;32.07;102970.47;6368148;22;45328;-75
2024/01/11 08:11:46;;;;;;;;;16.50;13.50;;;;;19.13;32.32;103058.00;6367401;22;48479;-75
2024/01/11 08:14:11;;;;;;;;;19.50;15.25;;;;;19.14;32.07;103063.19;6367544;22;45519;-75
2024/01/11 08:16:37;;;;;;;;;15.50;14.50;;;;;19.14;32.23;103065.84;6367955;22;46048;-75
2024/01/11 08:19:03;;;;;;;;;18.50;17.50;;;;;18.93;31.45;103026.78;6367780;22;45379;-75
2024/01/11 08:21:28;;;;;;;;;18.75;15.25;;;;;19.11;32.25;103059.91;6367871;22;45520;-75
2024/01/11 08:23:53;;;;;;;;;14.75;14.75;;;;;19.17;32.03;103065.63;6367348;22;45424;-75
2024/01/11 08:26:18;;;;;;;;;19.50;13.50;;;;;19.17;31.71;103073.53;6367739;22;46731;-75
2024/01/11 08:28:44;;;;;;;;;17.50;15.00;;;;;19.17;32.15;103073.53;6367103;22;45266;-75
2024/01/11 08:31:10;;;;;;;;;16.75;16.00;;;;;19.18;31.81;103066.47;6368000;22;45099;-75
2024/01/11 08:33:38;;;;;;;;;16.25;12.75;;;;;19.20;32.14;103075.16;6368220;22;45417;-75
2024/01/11 08:36:07;;;;;;;;;16.25;14.50;;;;;19.21;31.92;103073.34;6367870;22;46126;-74
2024/01/11 08:38:32;;;;;;;;;18.75;15.50;;;;;19.13;31.94;103071.19;6368051;22;45280;-75
2024/01/11 08:41:01;;;;;;;;;16.75;16.75;;;;;18.95;31.66;103024.03;6368098;22;45269;-75
2024/01/11 08:43:27;;;;;;;;;16.50;13.75;;;;;19.22;32.04;103067.13;6367132;22;45298;-75
2024/01/11 08:45:52;;;;;;;;;13.75;13.75;;;;;19.17;31.94;103070.06;6367887;22;46027;-75
2024/01/11 08:48:17;;;;;;;;;17.00;15.00;;;;;19.09;31.80;103052.09;6367887;22;45298;-75
2024/01/11 08:50:43;;;;;;;;;16.00;14.25;;;;;19.23;31.93;103072.28;6368011;22;45217;-76
2024/01/11 08:53:08;;;;;;;;;15.75;15.75;;;;;19.24;31.64;103078.41;6367794;22;45404;-75
2024/01/11 08:55:33;;;;;;;;;19.75;16.75;;;;;19.22;31.74;103072.41;6367779;22;46232;-74
2024/01/11 08:57:59;;;;;;;;;16.25;14.50;;;;;19.18;31.62;103063.84;6367286;22;45229;-76
2024/01/11 09:00:24;;;;;;;;;16.75;15.75;;;;;19.09;31.99;103048.63;6368111;22;45183;-75
2024/01/11 09:02:49;;;;;;;;;14.25;13.25;;;;;19.14;31.71;103055.28;6367644;22;45433;-74
2024/01/11 09:05:15;;;;;;;;;13.50;12.25;;;;;19.17;31.83;103070.06;6367439;22;46713;-75
2024/01/11 09:07:40;;;;;;;;;14.25;13.00;;;;;19.28;31.74;103093.09;6339266;22;45270;-74
2024/01/11 09:10:08;;;;;;;;;16.75;13.00;;;;;19.30;31.92;103093.84;6368014;22;45217;-75
2024/01/11 09:12:34;;;;;;;;;17.25;14.50;;;;;19.26;31.80;103097.63;6367234;22;45284;-75
2024/01/11 09:14:59;;;;;;;;;14.00;13.00;;;;;19.26;32.04;103098.47;6367711;22;45192;-75
2024/01/11 09:17:25;;;;;;;;;16.25;13.75;;;;;19.32;31.81;103110.41;6367125;22;45489;-76
2024/01/11 09:19:51;;;;;;;;;17.00;15.75;;;;;19.28;31.68;103108.94;6362553;22;45243;-75
2024/01/11 09:22:16;;;;;;;;;15.00;14.75;;;;;19.28;31.62;103106.28;6363525;22;45444;-75
2024/01/11 09:24:41;;;;;;;;;20.25;16.00;;;;;19.24;31.81;103102.16;6363353;22;45906;-77
2024/01/11 09:27:07;;;;;;;;;14.50;12.75;;;;;19.35;31.77;103114.63;6363837;22;45408;-76
2024/01/11 09:29:32;;;;;;;;;14.50;14.50;;;;;19.22;31.57;103102.28;6363518;22;45594;-75
2024/01/11 09:31:59;;;;;;;;;15.75;14.00;;;;;19.32;31.68;103105.13;6362991;22;49559;-75
2024/01/11 09:34:24;;;;;;;;;18.25;16.00;;;;;19.38;31.70;103119.69;6363213;22;45421;-76
2024/01/11 09:36:50;;;;;;;;;9.00;7.75;;;;;19.15;31.89;103072.78;6362935;22;45291;-75
2024/01/11 09:39:15;;;;;;;;;15.50;14.25;;;;;19.40;31.61;103121.28;6364674;22;45250;-76
2024/01/11 09:41:44;;;;;;;;;13.50;12.00;;;;;19.42;31.55;103122.94;6364612;22;45272;-77
2024/01/11 09:44:09;;;;;;;;;17.25;14.50;;;;;19.44;31.71;103129.00;6364784;22;46083;-76
2024/01/11 09:46:35;;;;;;;;;14.00;11.50;;;;;19.43;31.56;103132.56;6365334;22;45367;-75
2024/01/11 09:49:03;;;;;;;;;13.25;12.75;;;;;19.34;31.55;103124.34;6365119;22;45719;-76
2024/01/11 09:51:29;;;;;;;;;14.25;13.00;;;;;19.45;31.75;103128.88;6364960;22;45494;-76
2024/01/11 09:53:56;;;;;;;;;16.75;15.00;;;;;19.45;31.44;103133.31;6364315;22;47617;-76
2024/01/11 09:56:21;;;;;;;;;15.00;13.00;;;;;19.46;31.64;103140.28;6364545;22;45167;-76
2024/01/11 09:58:50;;;;;;;;;15.25;13.00;;;;;19.40;31.36;103131.84;6364243;22;45292;-75
2024/01/11 10:01:16;;;;;;;;;14.25;13.75;;;;;19.39;31.18;103135.41;6364434;22;45422;-76
2024/01/11 10:03:42;;;;;;;;;14.00;14.00;;;;;19.48;31.28;103141.88;6361825;22;46667;-76
2024/01/11 10:06:09;;;;;;;;;21.00;18.75;;;;;19.44;31.23;103134.28;6364871;22;45360;-75
2024/01/11 10:08:35;;;;;;;;;18.50;14.25;;;;;19.16;31.41;103087.69;6365237;22;45467;-75
2024/01/11 10:11:02;;;;;;;;;18.75;15.00;;;;;19.38;31.07;103131.09;6363720;22;45290;-76
2024/01/11 10:13:29;;;;;;;;;19.25;12.50;;;;;19.38;31.14;103139.03;6363954;22;47171;-76
2024/01/11 10:16:09;;;;;;;;;13.25;12.75;;;;;19.53;31.14;103162.66;6364721;22;45340;-76
2024/01/11 10:18:35;;;;;;;;;16.25;13.00;;;;;19.39;31.13;103126.66;6365697;22;45235;-76
2024/01/11 10:21:01;;;;;;;;;18.00;15.50;;;;;19.55;31.05;103146.69;6363958;22;45322;-76
2024/01/11 10:23:28;;;;;;;;;14.00;11.25;;;;;19.55;30.97;103136.13;6364124;22;46542;-76
2024/01/11 10:25:57;;;;;;;;;16.50;13.50;;;;;19.40;31.02;103115.16;6364061;22;45360;-77
2024/01/11 10:28:25;;;;;;;;;16.50;13.75;;;;;19.51;31.10;103136.38;6364142;22;45457;-77
2024/01/11 10:30:52;;;;;;;;;17.00;15.75;;;;;19.56;31.10;103135.19;6364379;22;45339;-76
2024/01/11 10:33:20;;;;;;;;;15.50;15.00;;;;;19.56;31.16;103122.00;6364029;22;46033;-75
2024/01/11 10:35:45;;;;;;;;;15.50;13.00;;;;;19.57;31.11;103119.25;6363792;22;45294;-76
2024/01/11 10:38:11;;;;;;;;;17.25;15.75;;;;;19.48;30.98;103104.91;6364471;22;48303;-75
2024/01/11 10:40:36;;;;;;;;;14.00;13.00;;;;;19.57;31.08;103107.84;6364724;22;45465;-76
2024/01/11 10:43:05;;;;;;;;;12.25;12.00;;;;;19.54;30.82;103111.56;6364410;22;52808;-75
2024/01/11 10:45:38;;;;;;;;;18.00;16.00;;;;;19.54;31.32;103110.72;6364342;22;45389;-75
2024/01/11 10:48:07;;;;;;;;;16.75;14.75;;;;;19.43;31.34;103096.47;6364639;22;45323;-76
2024/01/11 10:50:39;;;;;;;;;17.00;14.00;;;;;19.57;31.14;103123.69;6364105;22;45209;-75
2024/01/11 10:53:11;;;;;;;;;16.00;15.25;;;;;19.56;31.15;103136.06;6363835;22;46107;-76
2024/01/11 10:55:38;;;;;;;;;15.50;14.50;;;;;19.49;31.41;103125.06;6364105;22;45352;-76
2024/01/11 10:58:04;;;;;;;;;17.25;14.50;;;;;19.45;31.18;103128.88;6364114;22;45367;-75
2024/01/11 11:00:31;;;;;;;;;15.75;12.50;;;;;19.42;31.30;103113.25;6364588;22;45303;-75
2024/01/11 11:02:59;;;;;;;;;17.00;13.75;;;;;19.55;31.20;103126.44;6363816;22;46621;-75
2024/01/11 11:05:27;;;;;;;;;13.75;12.75;;;;;19.00;31.56;103048.31;6364005;22;45352;-76
2024/01/11 11:07:54;;;;;;;;;17.25;14.00;;;;;19.36;31.21;103111.88;6363754;22;45758;-75
2024/01/11 11:10:21;;;;;;;;;10.75;9.50;;;;;19.36;31.08;103109.22;6363780;22;45427;-75
2024/01/11 11:12:48;;;;;;;;;17.25;16.00;;;;;19.55;30.88;103137.00;6363498;22;46317;-75
2024/01/11 11:15:14;;;;;;;;;14.75;12.00;;;;;19.32;31.21;103107.75;6363729;22;45475;-75
2024/01/11 11:17:42;;;;;;;;;18.00;14.00;;;;;19.55;31.22;103149.34;6364434;22;45319;-76
2024/01/11 11:20:08;;;;;;;;;12.50;12.00;;;;;19.42;30.87;103104.47;6364755;22;45359;-76
2024/01/11 11:22:35;;;;;;;;;18.25;14.25;;;;;19.54;31.02;103143.25;6363895;22;47413;-75
2024/01/11 11:25:08;;;;;;;;;13.75;9.50;;;;;19.43;31.19;103127.28;6338243;22;45259;-75
2024/01/11 11:27:33;;;;;;;;;17.00;14.00;;;;;19.49;31.15;103140.09;6368322;22;45274;-75
2024/01/11 11:29:58;;;;;;;;;14.25;13.00;;;;;19.51;31.08;103146.09;6367852;22;48846;-75
2024/01/11 11:32:37;;;;;;;;;16.75;14.25;;;;;19.54;31.01;103145.88;6367885;22;45954;-75
2024/01/11 11:35:03;;;;;;;;;14.75;14.25;;;;;19.40;31.10;103129.19;6365852;22;45272;-75
2024/01/11 11:37:29;;;;;;;;;14.00;13.75;;;;;19.45;31.10;103123.59;6367703;22;45247;-75
2024/01/11 11:39:55;;;;;;;;;17.75;14.00;;;;;19.50;31.21;103134.69;6368066;22;45425;-74
2024/01/11 11:42:23;;;;;;;;;15.75;14.00;;;;;19.50;31.75;103136.47;6368447;22;45149;-75
2024/01/11 11:44:50;;;;;;;;;17.50;15.25;;;;;19.44;31.70;103105.22;6367907;22;45259;-75
2024/01/11 11:47:20;;;;;;;;;16.50;13.25;;;;;19.37;31.97;103105.66;6368067;22;45347;-75
2024/01/11 11:50:00;;;;;;;;;12.75;11.50;;;;;19.50;31.91;103113.56;6368218;22;45370;-75
2024/01/11 11:52:26;;;;;;;;;14.00;11.25;;;;;19.50;31.92;103123.25;6367819;22;45224;-76
2024/01/11 11:54:53;;;;;;;;;17.50;14.25;;;;;19.49;31.98;103117.13;6368197;22;45245;-74
2024/01/11 11:57:20;;;;;;;;;15.00;15.00;;;;;19.34;31.91;103086.53;6368724;22;45279;-75
2024/01/11 11:59:45;;;;;;;;;15.75;12.25;;;;;19.48;32.08;103112.81;6367720;22;45212;-75
2024/01/11 12:02:16;;;;;;;;;16.25;11.50;;;;;19.38;32.24;103099.44;6368313;22;46209;-75
2024/01/11 12:04:47;;;;;;;;;14.75;12.50;;;;;19.49;32.51;103113.69;6368517;22;45177;-75
2024/01/11 12:07:12;;;;;;;;;18.00;14.00;;;;;19.38;32.05;103096.78;6367320;22;45351;-76
2024/01/11 12:09:37;;;;;;;;;21.50;15.50;;;;;19.47;32.27;103110.28;6367256;22;45340;-75
2024/01/11 12:12:04;;;;;;;;;15.75;13.00;;;;;19.37;32.41;103088.97;6367196;22;46695;-75
2024/01/11 12:14:29;;;;;;;;;13.75;12.25;;;;;19.41;32.13;103082.53;6367714;22;45289;-74
2024/01/11 12:16:58;;;;;;;;;18.75;14.00;;;;;19.46;32.17;103098.88;6340222;22;45271;-74
2024/01/11 12:19:24;;;;;;;;;17.00;14.75;;;;;19.29;32.27;103071.88;6367588;22;45312;-74
2024/01/11 12:21:50;;;;;;;;;16.75;13.75;;;;;19.45;32.27;103096.34;6366923;22;46131;-75
2024/01/11 12:24:16;;;;;;;;;14.50;13.75;;;;;19.24;32.32;103062.56;6367993;22;45264;-75
2024/01/11 12:26:42;;;;;;;;;12.00;9.50;;;;;19.29;32.32;103076.28;6367908;22;45323;-75
2024/01/11 12:29:09;;;;;;;;;12.00;10.25;;;;;19.43;32.32;103093.81;6367959;22;45458;-74
2024/01/11 12:31:35;;;;;;;;;15.50;14.50;;;;;19.43;32.27;103099.09;6366935;22;47062;-74
2024/01/11 12:34:01;;;;;;;;;13.75;12.00;;;;;19.37;32.11;103091.59;6366939;22;45447;-76
2024/01/11 12:36:27;;;;;;;;;16.75;13.25;;;;;19.43;32.30;103100.88;6365653;22;45305;-74
2024/01/11 12:38:53;;;;;;;;;15.00;13.75;;;;;19.45;32.11;103097.19;6363953;22;45282;-74
2024/01/11 12:41:19;;;;;;;;;19.75;14.50;;;;;19.47;32.12;103091.78;6362779;22;62072;-74
2024/01/11 12:43:44;;;;;;;;;17.50;14.00;;;;;19.47;32.38;103097.91;6364123;22;45292;-74
2024/01/11 12:46:10;;;;;;;;;14.75;10.75;;;;;19.43;31.89;103074.50;6363851;22;45189;-73
2024/01/11 12:48:35;;;;;;;;;12.75;10.25;;;;;19.46;31.80;103077.78;6363909;22;45406;-73
2024/01/11 12:51:02;;;;;;;;;16.00;14.00;;;;;19.44;31.91;103071.72;6335537;22;46159;-75
2024/01/11 12:53:28;;;;;;;;;16.00;13.25;;;;;19.32;32.30;103043.56;6363528;22;45405;-76
2024/01/11 12:56:10;;;;;;;;;12.50;10.75;;;;;19.47;31.87;103066.25;6364396;22;45404;-75
2024/01/11 12:58:38;;;;;;;;;12.75;11.75;;;;;19.43;31.91;103061.28;6363615;22;45176;-76
2024/01/11 13:01:07;;;;;;;;;15.25;15.25;;;;;19.37;32.22;103050.22;6363212;22;47167;-75
2024/01/11 13:03:33;;;;;;;;;15.25;12.50;;;;;19.48;31.99;103067.94;6362855;22;45255;-76
2024/01/11 13:05:58;;;;;;;;;15.00;12.75;;;;;19.45;31.88;103062.03;6364252;22;45336;-76
2024/01/11 13:08:24;;;;;;;;;11.50;10.00;;;;;19.37;31.81;103046.72;6364098;22;45514;-76
2024/01/11 13:10:50;;;;;;;;;13.50;12.50;;;;;19.32;31.85;103040.91;6363118;22;47014;-75
2024/01/11 13:13:16;;;;;;;;;14.75;10.25;;;;;19.47;31.95;103068.03;6363070;22;45295;-75
2024/01/11 13:15:41;;;;;;;;;8.25;2.50;;;;;19.35;31.95;103051.28;6363091;22;45515;-75
2024/01/11 13:18:06;;;;;;;;;15.25;12.50;;;;;19.14;32.28;103022.75;6362856;22;45627;-75
2024/01/11 13:20:32;;;;;;;;;14.25;10.00;;;;;19.47;32.13;103068.03;6363417;22;47195;-75
2024/01/11 13:23:29;;;;;;;;;16.00;12.25;;;;;19.46;31.84;103064.56;6364331;22;45347;-75
2024/01/11 13:25:54;;;;;;;;;15.50;11.50;;;;;19.35;31.90;103044.19;6235759;22;45306;-76
2024/01/11 13:28:20;;;;;;;;;16.75;11.00;;;;;19.17;31.97;103023.41;6234736;22;45242;-75
2024/01/11 13:30:46;;;;;;;;;10.50;10.25;;;;;19.38;31.98;103058.97;6235028;22;46230;-75
2024/01/11 13:33:12;;;;;;;;;16.25;11.50;;;;;19.38;31.96;103057.19;6234327;22;45716;-75
2024/01/11 13:35:39;;;;;;;;;11.00;9.75;;;;;19.45;32.07;103067.31;6235572;22;45397;-75
2024/01/11 13:38:04;;;;;;;;;12.50;12.25;;;;;19.45;31.93;103062.03;6209217;22;45503;-75
2024/01/11 13:40:30;;;;;;;;;14.50;12.50;;;;;19.27;31.81;103039.47;6234673;22;46899;-76
2024/01/11 13:42:56;;;;;;;;;15.75;13.00;;;;;19.31;31.73;103039.25;6235765;22;45670;-75
2024/01/11 13:45:22;;;;;;;;;13.50;11.00;;;;;19.41;32.08;103056.13;6235415;22;45408;-76
2024/01/11 13:47:48;;;;;;;;;15.75;13.00;;;;;19.21;31.78;103016.13;6235262;22;45297;-75
2024/01/11 13:50:13;;;;;;;;;10.50;10.50;;;;;19.44;32.01;103061.16;6234423;22;47115;-75
2024/01/11 13:52:39;;;;;;;;;13.25;11.25;;;;;19.27;31.85;103039.47;6209043;22;45949;-75
2024/01/11 13:55:04;;;;;;;;;12.25;11.75;;;;;19.43;31.87;103061.28;6209057;22;45667;-76
2024/01/11 13:57:30;;;;;;;;;15.50;13.75;;;;;19.42;32.10;103063.06;6234948;22;45804;-75
2024/01/11 13:59:55;;;;;;;;;14.50;14.50;;;;;19.42;31.84;103073.63;6235410;22;46967;-76
2024/01/11 14:02:21;;;;;;;;;16.25;15.50;;;;;19.28;31.82;103038.50;6342820;22;45363;-75
2024/01/11 14:04:46;;;;;;;;;12.50;10.75;;;;;19.37;31.77;103052.00;6363387;22;45553;-76
2024/01/11 14:07:11;;;;;;;;;13.50;11.50;;;;;19.42;31.93;103064.88;6363047;22;45194;-75
2024/01/11 14:09:37;;;;;;;;;12.75;10.75;;;;;19.41;31.78;103061.41;6363155;22;45915;-75
2024/01/11 14:12:02;;;;;;;;;13.25;12.00;;;;;19.27;31.69;103046.53;6361944;22;49431;-75
2024/01/11 14:14:28;;;;;;;;;11.50;11.00;;;;;19.37;31.97;103059.91;6363081;22;45359;-76
2024/01/11 14:16:53;;;;;;;;;12.75;10.50;;;;;19.41;31.82;103058.78;6363468;22;45732;-75
2024/01/11 14:19:18;;;;;;;;;12.75;11.25;;;;;19.41;31.87;103058.78;6362609;22;45263;-75
2024/01/11 14:21:44;;;;;;;;;18.50;12.50;;;;;19.40;31.52;103057.91;6362361;22;45440;-75
2024/01/11 14:24:09;;;;;;;;;17.25;11.50;;;;;19.40;31.84;103060.56;6364823;22;45319;-75
2024/01/11 14:26:34;;;;;;;;;13.00;12.00;;;;;19.40;31.79;103055.28;6364534;22;45388;-75
2024/01/11 14:29:01;;;;;;;;;13.25;12.00;;;;;19.28;31.90;103043.78;6364240;22;45227;-75
2024/01/11 14:31:26;;;;;;;;;10.50;9.50;;;;;19.38;31.79;103061.63;6363693;22;45358;-75
2024/01/11 14:33:52;;;;;;;;;12.00;10.25;;;;;19.34;32.04;103060.97;6364947;22;45343;-75
2024/01/11 14:36:17;;;;;;;;;14.50;12.50;;;;;19.36;31.81;103064.34;6365008;22;45292;-75
2024/01/11 14:38:42;;;;;;;;;9.50;9.00;;;;;19.40;31.55;103065.84;6363691;22;61522;-75
2024/01/11 14:41:09;;;;;;;;;18.00;13.50;;;;;19.35;31.56;103065.31;6364834;22;45881;-75
2024/01/11 14:43:35;;;;;;;;;14.50;13.75;;;;;19.39;31.70;103063.28;6364645;22;45346;-76
2024/01/11 14:46:00;;;;;;;;;15.00;13.75;;;;;19.39;31.56;103079.13;6363475;22;45441;-76
2024/01/11 14:48:26;;;;;;;;;17.00;14.25;;;;;19.27;31.79;103065.00;6365042;22;46145;-76
2024/01/11 14:50:52;;;;;;;;;17.00;13.25;;;;;19.37;31.58;103084.53;6364105;22;45452;-75
2024/01/11 14:53:18;;;;;;;;;11.00;10.75;;;;;19.38;31.68;103085.38;6364431;22;45372;-75
2024/01/11 14:55:43;;;;;;;;;14.25;12.75;;;;;19.38;31.33;103088.03;6363998;22;45515;-75
2024/01/11 14:58:09;;;;;;;;;16.50;14.00;;;;;19.27;31.63;103072.94;6364058;22;46076;-75
2024/01/11 15:00:34;;;;;;;;;15.25;12.25;;;;;19.37;31.48;103086.31;6364474;22;45327;-75
2024/01/11 15:03:00;;;;;;;;;13.25;11.50;;;;;19.36;31.69;103087.28;6364245;22;45317;-75
2024/01/11 15:05:25;;;;;;;;;19.00;12.75;;;;;19.34;31.54;103089.16;6365186;22;45224;-75
2024/01/11 15:07:50;;;;;;;;;12.50;11.25;;;;;19.15;31.59;103051.66;6364313;22;47187;-75
2024/01/11 15:10:16;;;;;;;;;17.00;13.75;;;;;19.36;31.50;103096.03;6335497;22;46966;-75
2024/01/11 15:12:42;;;;;;;;;15.25;14.75;;;;;19.37;31.35;103094.25;6364590;22;45338;-75
2024/01/11 15:15:08;;;;;;;;;14.50;12.00;;;;;19.28;31.68;103085.19;6363063;22;45756;-75
2024/01/11 15:17:33;;;;;;;;;15.25;13.75;;;;;19.35;31.93;103098.78;6364582;22;45868;-75
2024/01/11 15:19:58;;;;;;;;;13.50;11.50;;;;;19.24;31.73;103081.03;6364133;22;45320;-75
2024/01/11 15:22:24;;;;;;;;;13.75;13.00;;;;;19.20;31.37;103083.06;6336018;22;45291;-75
2024/01/11 15:24:52;;;;;;;;;11.75;10.25;;;;;19.31;31.45;103108.69;6364756;22;45217;-75
2024/01/11 15:27:21;;;;;;;;;13.00;11.00;;;;;19.07;31.50;103067.22;6363890;22;45323;-75
2024/01/11 15:29:47;;;;;;;;;11.25;11.00;;;;;19.34;31.60;103108.50;6360694;22;45840;-75
2024/01/11 15:32:13;;;;;;;;;14.75;14.75;;;;;19.33;31.51;103121.81;6363979;22;45277;-75
2024/01/11 15:34:39;;;;;;;;;18.75;17.00;;;;;19.32;31.96;103117.47;6364441;22;45771;-75
2024/01/11 15:37:04;;;;;;;;;17.75;15.50;;;;;19.32;31.58;103120.97;6363899;22;45837;-75
2024/01/11 15:39:30;;;;;;;;;14.00;11.00;;;;;19.20;31.83;103117.38;6364017;22;45281;-74
2024/01/11 15:41:56;;;;;;;;;13.50;13.50;;;;;19.25;31.71;103135.53;6364707;22;45366;-75
2024/01/11 15:44:22;;;;;;;;;15.50;12.00;;;;;19.31;31.72;103137.72;6363785;22;45577;-75
2024/01/11 15:46:47;;;;;;;;;13.50;11.50;;;;;19.24;31.45;103137.31;6364085;22;46280;-74
2024/01/11 15:49:13;;;;;;;;;10.25;8.00;;;;;19.20;31.66;103125.31;6364002;22;45402;-75
2024/01/11 15:51:38;;;;;;;;;17.75;12.25;;;;;19.33;31.44;103148.22;6364856;22;45296;-75
2024/01/11 15:54:03;;;;;;;;;17.75;13.00;;;;;19.23;31.50;103138.25;6364403;22;45213;-75
2024/01/11 15:56:29;;;;;;;;;16.50;12.50;;;;;19.19;31.34;103128.88;6364460;22;45341;-75
2024/01/11 15:58:54;;;;;;;;;12.25;10.00;;;;;19.33;31.40;103156.97;6364906;22;45289;-75
2024/01/11 16:01:19;;;;;;;;;16.00;12.25;;;;;19.29;31.28;103150.19;6364080;22;45497;-75
2024/01/11 16:03:46;;;;;;;;;13.25;12.00;;;;;19.33;31.37;103167.53;6335849;22;45446;-75
2024/01/11 16:06:11;;;;;;;;;17.50;12.00;;;;;19.32;31.54;103168.47;6364231;22;46098;-75
2024/01/11 16:08:37;;;;;;;;;18.00;12.75;;;;;19.14;31.52;103144.16;6364326;22;45340;-75
2024/01/11 16:11:02;;;;;;;;;10.25;9.25;;;;;19.33;31.27;103169.31;6364235;22;45370;-75
2024/01/11 16:13:27;;;;;;;;;15.00;13.25;;;;;19.32;31.55;103173.75;6364302;22;45587;-75
2024/01/11 16:15:55;;;;;;;;;12.00;12.00;;;;;19.32;31.46;103172.91;6364147;22;47340;-75
2024/01/11 16:18:22;;;;;;;;;18.25;11.75;;;;;19.33;31.45;103177.25;6364147;22;45635;-75
2024/01/11 16:20:50;;;;;;;;;13.00;12.25;;;;;19.31;31.62;103171.22;6363818;22;45300;-75
2024/01/11 16:23:16;;;;;;;;;14.25;14.25;;;;;19.23;31.22;103163.84;6363549;22;45724;-75
2024/01/11 16:25:41;;;;;;;;;12.75;11.25;;;;;19.30;31.35;103178.31;6362969;22;46240;-75
2024/01/11 16:28:07;;;;;;;;;12.00;12.00;;;;;19.30;31.19;103175.66;6362302;22;59222;-75
2024/01/11 16:30:32;;;;;;;;;16.50;13.50;;;;;19.26;31.91;103180.28;6335823;22;45367;-75
2024/01/11 16:32:57;;;;;;;;;11.75;11.75;;;;;19.29;31.34;103180.09;6364196;22;45349;-75
2024/01/11 16:35:23;;;;;;;;;15.25;14.25;;;;;19.29;31.63;103187.16;6335566;22;46477;-75
2024/01/11 16:37:48;;;;;;;;;13.50;13.50;;;;;19.25;31.50;103180.41;6363270;22;45776;-76
2024/01/11 16:40:14;;;;;;;;;14.50;12.75;;;;;19.29;31.71;103187.16;6363894;22;45354;-73
2024/01/11 16:42:39;;;;;;;;;17.75;12.50;;;;;19.20;31.33;103178.09;6363939;22;45390;-75
2024/01/11 16:45:05;;;;;;;;;11.00;10.00;;;;;19.27;31.31;103191.69;6363207;22;46318;-75
2024/01/11 16:47:35;;;;;;;;;9.75;9.50;;;;;18.97;31.77;103151.41;6363659;22;45351;-76
2024/01/11 16:50:06;;;;;;;;;11.75;9.25;;;;;19.17;31.72;103179.09;6363668;22;45323;-76
2024/01/11 16:52:32;;;;;;;;;13.00;8.00;;;;;19.24;31.72;103197.19;6362523;22;45383;-75
2024/01/11 16:54:58;;;;;;;;;15.75;12.50;;;;;19.26;31.62;103208.47;6363162;22;46295;-74
2024/01/11 16:57:23;;;;;;;;;12.75;11.25;;;;;19.25;31.55;103190.97;6363387;22;45222;-73
2024/01/11 16:59:49;;;;;;;;;18.75;13.50;;;;;19.24;31.56;103191.91;6364495;22;45288;-73
2024/01/11 17:02:14;;;;;;;;;17.75;14.25;;;;;19.16;31.34;103184.47;6363295;22;45402;-76
2024/01/11 17:04:40;;;;;;;;;8.00;4.25;;;;;19.15;31.69;103177.53;6363656;22;46002;-74
2024/01/11 17:07:06;;;;;;;;;15.00;12.75;;;;;19.20;31.49;103185.16;6362437;22;45235;-75
2024/01/11 17:09:31;;;;;;;;;13.75;12.00;;;;;19.17;31.72;103181.75;6362891;22;45264;-74
2024/01/11 17:11:56;;;;;;;;;14.75;12.50;;;;;19.23;31.70;103185.78;6364761;22;45496;-76
2024/01/11 17:14:22;;;;;;;;;14.50;12.00;;;;;19.23;31.49;103185.78;6363847;22;47386;-76
2024/01/11 17:16:47;;;;;;;;;14.25;11.00;;;;;19.17;31.52;103176.47;6363904;22;45694;-74
2024/01/11 17:19:12;;;;;;;;;10.00;9.75;;;;;19.23;31.55;103177.84;6363319;22;49002;-76
2024/01/11 17:21:38;;;;;;;;;11.50;11.50;;;;;19.20;31.16;103179.88;6363696;22;45439;-75
2024/01/11 17:24:04;;;;;;;;;13.00;9.00;;;;;19.19;31.27;103184.31;6363194;22;45768;-75
2024/01/11 17:26:31;;;;;;;;;11.75;10.75;;;;;19.23;31.34;103198.16;6364007;22;45732;-76
2024/01/11 17:28:56;;;;;;;;;12.50;12.50;;;;;19.23;31.45;103195.50;6364507;22;45701;-75
2024/01/11 17:31:22;;;;;;;;;12.50;9.00;;;;;19.20;31.38;103201.00;6363848;22;45579;-74
2024/01/11 17:33:47;;;;;;;;;13.50;11.00;;;;;19.17;31.29;103204.66;6363404;22;46181;-75
2024/01/11 17:36:12;;;;;;;;;12.50;12.00;;;;;19.04;31.23;103181.72;6363505;22;45201;-75
2024/01/11 17:38:38;;;;;;;;;10.25;10.25;;;;;19.22;31.47;103218.41;6363066;22;45213;-75
2024/01/11 17:41:03;;;;;;;;;13.00;12.00;;;;;19.22;31.48;103214.91;6363102;22;55647;-74
2024/01/11 17:43:28;;;;;;;;;14.50;9.50;;;;;19.21;31.41;103211.44;6363815;22;45285;-75
2024/01/11 17:45:54;;;;;;;;;11.00;11.00;;;;;19.09;31.31;103193.75;6363649;22;45249;-75
2024/01/11 17:48:19;;;;;;;;;11.50;10.50;;;;;19.21;31.38;103223.78;6363657;22;45456;-76
2024/01/11 17:50:45;;;;;;;;;11.00;11.00;;;;;19.21;31.27;103221.97;6363536;22;45285;-75
2024/01/11 17:53:14;;;;;;;;;14.50;11.00;;;;;19.10;31.43;103209.47;6363095;22;45330;-74
2024/01/11 17:55:39;;;;;;;;;11.50;10.50;;;;;19.04;31.41;103197.56;6363063;22;45468;-75
2024/01/11 17:58:04;;;;;;;;;13.50;9.75;;;;;19.16;31.37;103222.25;6367336;22;45303;-85
2024/01/11 18:00:31;;;;;;;;;12.75;10.25;;;;;19.15;31.13;103212.66;6368353;22;45324;-81
2024/01/11 18:02:57;;;;;;;;;12.50;11.75;;;;;19.21;31.51;103224.63;6368004;22;46437;-79